Flight Track Log - Related Links

Times and Time Zones

All times are in EDT time to prevent confusion due to time zone crossing. See the DAL885 flight status page for this flight to view local times or setup timezone preferences in your user account.

Time Position Orientation Groundspeed Altitude Reporting Facility
EDT Latitude Longitude Course Direction KTS MPH feet Rate Location/Type
Thu 05:32:33 PM 42.8511 -85.5983 180° South 249 287 2,800  Level Chicago Center
Thu 05:33:35 PM 42.7803 -85.6075 185° South 263 303 5,200 2,565 Climbing Chicago Center
Thu 05:34:37 PM 42.7022 -85.6064 179° South 274 315 8,100 2,565 Climbing Chicago Center
Thu 05:35:00 PM 42.4559 -85.4657 180° South  Level Estimated
Thu 05:35:39 PM 42.6222 -85.6050 179° South 281 323 10,500  Level Chicago Center
Thu 05:36:00 PM 42.3497 -85.4516 180° South  Level Estimated
Thu 05:36:41 PM 42.5306 -85.6014 178° South 319 367 11,600  Level Chicago Center
Thu 05:37:00 PM 42.2435 -85.4375 180° South  Level Estimated
Thu 05:37:43 PM 42.4225 -85.6014 180° South 360 414 13,200  Level Chicago Center
Thu 05:38:46 PM 42.2836 -85.6011 180° South 404 465 15,900 2,304 Climbing Chicago Center
Thu 05:39:48 PM 42.1644 -85.6014 180° South 425 489 18,000 1,935 Climbing Chicago Center
Thu 05:40:50 PM 42.0419 -85.6019 180° South 437 503 19,900 1,742 Climbing Chicago Center
Thu 05:41:52 PM 41.9200 -85.6025 180° South 446 513 21,600 1,548 Climbing Chicago Center
Thu 05:42:54 PM 41.7942 -85.6028 180° South 451 519 23,100 1,645 Climbing Chicago Center
Thu 05:43:56 PM 41.6422 -85.6094 182° South 462 532 25,000 1,935 Climbing Chicago Center
Thu 05:44:58 PM 41.5183 -85.6314 188° South 463 533 27,100 1,452 Climbing Chicago Center
Thu 05:46:00 PM 41.3950 -85.6492 186° South 454 522 28,000 432 Climbing Chicago Center
Thu 05:47:03 PM 41.2436 -85.6117 169° South 463 533 28,000 576 Level Chicago Center
Thu 05:48:05 PM 41.1167 -85.6017 177° South 461 531 29,200 1,065 Climbing Chicago Center
Thu 05:49:07 PM 40.9925 -85.6306 190° South 453 521 30,200 1,065 Climbing Chicago Center
Thu 05:50:09 PM 40.8711 -85.6561 189° South 448 516 31,400 871 Climbing Chicago Center
Thu 05:51:11 PM 40.7506 -85.6814 189° South 443 510 32,000 290 Climbing Chicago Center
Thu 05:52:13 PM 40.6172 -85.7083 189° South 441 507 32,000  Level Chicago Center
Thu 05:53:15 PM 40.4961 -85.7319 188° South 439 505 32,000  Level Chicago Center
Thu 05:54:17 PM 40.3758 -85.7583 189° South 438 504 32,000  Level Chicago Center
Thu 05:55:02 PM 40.2789 -85.7775 189° South 440 506 32,000  Level Indianapolis Center
Thu 05:56:04 PM 40.1583 -85.8028 189° South 440 506 32,000 96 Level Indianapolis Center
Thu 05:57:07 PM 40.0361 -85.8283 189° South 440 506 32,200 480 Climbing Indianapolis Center
Thu 05:58:09 PM 39.9150 -85.8531 189° South 440 506 33,000 677 Climbing Indianapolis Center
Thu 05:59:11 PM 39.7703 -85.8828 189° South 439 505 33,600 484 Climbing Indianapolis Center
Thu 06:00:13 PM 39.6486 -85.9081 189° South 438 504 34,000 194 Climbing Indianapolis Center
Thu 06:01:15 PM 39.5292 -85.9322 189° South 437 503 34,000  Level Indianapolis Center
Thu 06:02:17 PM 39.4108 -85.9561 189° South 431 496 34,000  Level Indianapolis Center
Thu 06:03:19 PM 39.2922 -85.9800 189° South 431 496 34,000  Level Indianapolis Center
Thu 06:04:21 PM 39.1756 -86.0042 189° South 428 493 34,000  Level Indianapolis Center
Thu 06:06:12 PM 38.9578 -86.0483 189° South 424 488 34,000  Level Memphis Center
Thu 06:07:14 PM 38.8414 -86.0736 190° South 423 487 34,000  Level Memphis Center
Thu 06:08:16 PM 38.7231 -86.0961 188° South 423 487 34,000  Level Memphis Center
Thu 06:09:18 PM 38.5864 -86.1267 190° South 423 487 34,000  Level Memphis Center
Thu 06:10:20 PM 38.4675 -86.1472 188° South 424 488 34,000  Level Memphis Center
Thu 06:11:22 PM 38.3503 -86.1661 187° South 424 488 34,000  Level Memphis Center
Thu 06:12:24 PM 38.2339 -86.1878 188° South 422 486 34,000 -145 Level Memphis Center
Thu 06:13:26 PM 38.1167 -86.2122 189° South 422 486 33,700 -484 Descending Memphis Center
Thu 06:14:28 PM 37.9997 -86.2350 189° South 422 486 33,000 -339 Descending Memphis Center
Thu 06:15:30 PM 37.8794 -86.2594 189° South 428 493 33,000  Level Memphis Center
Thu 06:16:32 PM 37.7414 -86.2869 189° South 428 493 33,000  Level Memphis Center
Thu 06:17:35 PM 37.6247 -86.3106 189° South 425 489 33,000  Level Memphis Center
Thu 06:18:37 PM 37.5064 -86.3331 189° South 425 489 33,000  Level Memphis Center
Thu 06:19:39 PM 37.3878 -86.3564 189° South 426 490 33,000  Level Memphis Center
Thu 06:20:42 PM 37.2675 -86.3792 189° South 427 491 33,000  Level Memphis Center
Thu 06:21:44 PM 37.1478 -86.4019 189° South 427 491 33,000  Level Memphis Center
Thu 06:22:46 PM 37.0281 -86.4264 189° South 429 494 33,000  Level Memphis Center
Thu 06:23:48 PM 36.8883 -86.4411 185° South 429 494 33,000  Level Memphis Center
Thu 06:24:50 PM 36.7664 -86.4333 177° South 430 495 33,000  Level Memphis Center
Thu 06:25:52 PM 36.6450 -86.4256 177° South 430 495 33,000  Level Memphis Center
Thu 06:26:54 PM 36.5225 -86.4167 177° South 430 495 33,000  Level Memphis Center
Thu 06:27:56 PM 36.3994 -86.4081 177° South 431 496 33,000  Level Memphis Center
Thu 06:28:58 PM 36.2753 -86.3994 177° South 434 499 33,000  Level Memphis Center
Thu 06:30:00 PM 36.1508 -86.3931 178° South 435 501 33,000  Level Memphis Center
Thu 06:31:02 PM 36.0269 -86.3858 177° South 436 502 33,000  Level Memphis Center
Thu 06:32:05 PM 35.9022 -86.3789 177° South 437 503 33,000  Level Memphis Center
Thu 06:33:07 PM 35.7603 -86.3672 176° South 437 503 33,000  Level Memphis Center
Thu 06:34:09 PM 35.6497 -86.2897 150° Southeast 451 519 33,000  Level Memphis Center
Thu 06:35:11 PM 35.5422 -86.2042 147° Southeast 455 524 33,000 -419 Level Memphis Center
Thu 06:37:15 PM 35.3347 -86.0394 147° Southeast 453 521 31,700 -1,129 Descending Memphis Center
Thu 06:38:17 PM 35.2058 -85.9364 147° Southeast 458 527 29,500 -1,984 Descending Memphis Center
Thu 06:39:19 PM 35.0972 -85.8503 147° Southeast 463 533 27,600 -1,645 Descending Memphis Center
Thu 06:40:21 PM 34.9867 -85.7622 147° Southeast 470 541 26,100 -1,645 Descending Memphis Center
Thu 06:41:23 PM 34.8822 -85.6800 147° Southeast 462 532 24,200 -1,016 Descending Memphis Center
Thu 06:42:25 PM 34.7758 -85.5967 147° Southeast 450 518 24,000 -295 Descending Atlanta Center
Thu 06:43:25 PM 34.6703 -85.5164 148° Southeast 450 518 23,600 -1,450 Descending Atlanta Center
Thu 06:44:25 PM 34.5689 -85.4364 147° Southeast 450 518 21,100 -2,250 Descending Atlanta Center
Thu 06:45:25 PM 34.4697 -85.3542 146° Southeast 445 512 19,100 -2,150 Descending Atlanta Center
Thu 06:46:25 PM 34.3786 -85.2872 149° Southeast 421 484 16,800 -2,250 Descending Atlanta Center
Thu 06:47:25 PM 34.2853 -85.2153 148° Southeast 397 457 14,600 -1,950 Descending Atlanta Center
Thu 06:48:25 PM 34.1983 -85.1489 148° Southeast 384 442 12,900 -800 Descending Atlanta Center
Thu 06:49:25 PM 34.1322 -85.0803 139° Southeast 355 409 13,000 50 Climbing Atlanta Center
Thu 06:50:25 PM 34.0744 -85.0044 133° Southeast 320 368 13,000 -250 Level Atlanta Center
Thu 06:51:25 PM 34.0039 -84.9458 145° Southeast 305 351 12,500 -1,150 Descending Atlanta Center
Thu 06:52:25 PM 33.9225 -84.9325 172° South 287 330 10,700 -1,700 Descending Atlanta Center
Thu 06:53:25 PM 33.8431 -84.9417 185° South 287 330 9,100 -1,100 Descending Atlanta Center
Thu 06:54:25 PM 33.7681 -84.9158 164° South 287 330 8,500 -750 Descending Atlanta Center
Thu 06:55:25 PM 33.6953 -84.8853 161° South 282 325 7,600 -870 Descending Atlanta Center
Thu 06:56:36 PM 33.6333 -84.8333 145° Southeast 234 269 6,600 -1,008 Descending Atlanta TRACON
Thu 06:57:36 PM 33.6333 -84.7500 90° East 230 265 5,400 -1,100 Descending Atlanta TRACON
Thu 06:58:36 PM 33.6333 -84.6667 90° East 229 264 4,400 -950 Descending Atlanta TRACON
Thu 06:59:36 PM 33.6333 -84.6000 90° East 217 250 3,500 -1,000 Descending Atlanta TRACON
Thu 07:00:36 PM 33.6333 -84.5333 90° East 179 206 2,400 -947 Descending Atlanta TRACON
Thu 07:01:30 PM 33.6333 -84.5000 90° East 138 159 1,700 -684 Descending Atlanta TRACON
Thu 07:02:30 PM 33.6333 -84.4500 90° East 137 158 1,100 -600 Descending Atlanta TRACON
Thu 07:04:00 PM 33.6367 -84.4279 North  Level Estimated
Thu 07:11:00 PM 33.6367 -84.4279 North  Level Estimated
Thu 07:12:00 PM 33.6367 -84.4279 North  Level Estimated

Login

Don't have an account? Register now (free) for customized features, flight alerts, and more!